TimeEST,TemperatureF,Dew PointF,Humidity,Sea Level PressureIn,VisibilityMPH,Wind Direction,Wind SpeedMPH,Gust SpeedMPH,PrecipitationIn,Events,Conditions,WindDirDegrees,DateUTC
12:10 AM,59.0,55.4,88,29.57,6.0,West,5.8,-,N/A,,Overcast,270,2012-12-11 05:10:00
12:44 AM,51.8,46.4,82,29.59,9.0,WNW,23.0,28.8,N/A,,Overcast,300,2012-12-11 05:44:00
12:51 AM,52.0,46.0,80,29.60,10.0,NW,18.4,-,0.00,Rain,Light Rain,310,2012-12-11 05:51:00
1:20 AM,50.0,42.8,76,29.62,10.0,NW,17.3,-,0.00,Rain,Light Rain,310,2012-12-11 06:20:00
1:51 AM,50.0,41.0,71,29.65,10.0,NW,12.7,-,0.00,,Overcast,320,2012-12-11 06:51:00
2:51 AM,48.0,41.0,77,29.70,10.0,NNW,12.7,21.9,0.00,Rain,Light Rain,330,2012-12-11 07:51:00
3:06 AM,48.2,41.0,76,29.71,10.0,North,8.1,-,0.00,,Overcast,350,2012-12-11 08:06:00
3:51 AM,46.9,42.1,83,29.71,10.0,NNE,5.8,-,0.00,,Overcast,20,2012-12-11 08:51:00
4:38 AM,46.4,42.8,87,29.71,10.0,NNW,3.5,-,N/A,,Overcast,340,2012-12-11 09:38:00
4:51 AM,46.9,41.0,80,29.72,10.0,North,8.1,-,N/A,,Overcast,360,2012-12-11 09:51:00
5:51 AM,45.0,37.9,76,29.76,10.0,NW,11.5,-,0.00,Rain,Light Rain,320,2012-12-11 10:51:00
6:51 AM,44.6,37.4,76,29.84,10.0,WNW,15.0,24.2,N/A,Rain,Light Rain,290,2012-12-11 11:51:00
7:51 AM,45.0,36.0,71,29.86,10.0,NW,13.8,-,0.00,,Mostly Cloudy,310,2012-12-11 12:51:00
8:51 AM,45.0,34.0,65,29.88,10.0,NNW,11.5,-,0.00,,Mostly Cloudy,330,2012-12-11 13:51:00
9:51 AM,45.0,33.1,63,29.89,10.0,NNW,11.5,20.7,N/A,,Mostly Cloudy,340,2012-12-11 14:51:00
10:51 AM,46.9,33.1,59,29.92,10.0,NW,12.7,-,N/A,,Mostly Cloudy,320,2012-12-11 15:51:00
11:51 AM,46.9,30.9,54,29.92,10.0,NNW,12.7,-,N/A,,Mostly Cloudy,330,2012-12-11 16:51:00
12:51 PM,46.9,30.9,54,29.93,10.0,NW,13.8,-,N/A,,Mostly Cloudy,320,2012-12-11 17:51:00
1:51 PM,48.0,30.0,50,29.95,10.0,NW,11.5,-,N/A,,Scattered Clouds,310,2012-12-11 18:51:00
2:51 PM,48.0,28.9,48,29.98,10.0,WNW,11.5,18.4,N/A,,Mostly Cloudy,300,2012-12-11 19:51:00
3:51 PM,46.9,28.9,50,30.01,10.0,North,8.1,-,N/A,,Mostly Cloudy,350,2012-12-11 20:51:00
4:51 PM,46.0,28.0,50,30.03,10.0,NNW,9.2,-,N/A,,Mostly Cloudy,330,2012-12-11 21:51:00
5:51 PM,45.0,28.0,52,30.07,10.0,NW,10.4,-,N/A,,Overcast,320,2012-12-11 22:51:00
6:51 PM,45.0,28.9,53,30.10,10.0,NNW,9.2,-,N/A,,Mostly Cloudy,330,2012-12-11 23:51:00
7:51 PM,44.1,28.0,53,30.12,10.0,NNW,10.4,-,N/A,,Mostly Cloudy,330,2012-12-12 00:51:00
8:51 PM,44.1,28.0,53,30.14,10.0,NW,15.0,-,N/A,,Mostly Cloudy,320,2012-12-12 01:51:00
9:51 PM,43.0,26.1,51,30.16,10.0,NNW,11.5,-,N/A,,Overcast,340,2012-12-12 02:51:00
10:51 PM,42.8,26.6,53,30.18,10.0,NW,10.4,-,N/A,,Mostly Cloudy,310,2012-12-12 03:51:00
11:51 PM,42.1,27.0,55,30.20,10.0,NW,10.4,-,N/A,,Mostly Cloudy,320,2012-12-12 04:51:00